sensor_id;sensor_type;location;lat;lon;timestamp;P1;durP1;ratioP1;P2;durP2;ratioP2
18239;SDS011;9244;50.828;4.718;2023-12-20T00:02:04;0.00;;;0.00;;
18239;SDS011;9244;50.828;4.718;2023-12-20T00:04:32;1.13;;;1.10;;
18239;SDS011;9244;50.828;4.718;2023-12-20T00:07:00;0.10;;;0.10;;
18239;SDS011;9244;50.828;4.718;2023-12-20T00:09:26;0.10;;;0.10;;
18239;SDS011;9244;50.828;4.718;2023-12-20T00:11:54;0.10;;;0.10;;
18239;SDS011;9244;50.828;4.718;2023-12-20T00:14:22;0.10;;;0.10;;
18239;SDS011;9244;50.828;4.718;2023-12-20T00:16:50;0.10;;;0.10;;
18239;SDS011;9244;50.828;4.718;2023-12-20T00:19:18;0.43;;;0.43;;
18239;SDS011;9244;50.828;4.718;2023-12-20T00:21:44;0.23;;;0.23;;
18239;SDS011;9244;50.828;4.718;2023-12-20T00:24:12;0.97;;;0.90;;
18239;SDS011;9244;50.828;4.718;2023-12-20T00:26:40;0.10;;;0.10;;
18239;SDS011;9244;50.828;4.718;2023-12-20T00:29:05;0.10;;;0.10;;
18239;SDS011;9244;50.828;4.718;2023-12-20T00:31:31;0.10;;;0.10;;
18239;SDS011;9244;50.828;4.718;2023-12-20T00:33:57;0.13;;;0.13;;
18239;SDS011;9244;50.828;4.718;2023-12-20T00:36:25;0.10;;;0.10;;
18239;SDS011;9244;50.828;4.718;2023-12-20T00:38:50;0.23;;;0.23;;
18239;SDS011;9244;50.828;4.718;2023-12-20T00:41:16;0.10;;;0.10;;
18239;SDS011;9244;50.828;4.718;2023-12-20T00:43:42;0.50;;;0.50;;
18239;SDS011;9244;50.828;4.718;2023-12-20T00:46:08;0.00;;;0.00;;
18239;SDS011;9244;50.828;4.718;2023-12-20T00:48:33;0.00;;;0.00;;
18239;SDS011;9244;50.828;4.718;2023-12-20T00:50:59;0.93;;;0.93;;
18239;SDS011;9244;50.828;4.718;2023-12-20T00:53:25;1.73;;;0.87;;
18239;SDS011;9244;50.828;4.718;2023-12-20T00:55:50;1.50;;;1.40;;
18239;SDS011;9244;50.828;4.718;2023-12-20T00:58:16;0.10;;;0.10;;
18239;SDS011;9244;50.828;4.718;2023-12-20T01:00:44;0.00;;;0.00;;
18239;SDS011;9244;50.828;4.718;2023-12-20T01:03:09;0.10;;;0.10;;
18239;SDS011;9244;50.828;4.718;2023-12-20T01:05:35;0.10;;;0.10;;
18239;SDS011;9244;50.828;4.718;2023-12-20T01:08:00;0.10;;;0.10;;
18239;SDS011;9244;50.828;4.718;2023-12-20T01:10:28;0.10;;;0.10;;
18239;SDS011;9244;50.828;4.718;2023-12-20T01:12:54;0.10;;;0.10;;
18239;SDS011;9244;50.828;4.718;2023-12-20T01:15:20;0.10;;;0.10;;
18239;SDS011;9244;50.828;4.718;2023-12-20T01:17:46;0.10;;;0.10;;
18239;SDS011;9244;50.828;4.718;2023-12-20T01:20:12;0.10;;;0.10;;
18239;SDS011;9244;50.828;4.718;2023-12-20T01:22:38;0.00;;;0.00;;
18239;SDS011;9244;50.828;4.718;2023-12-20T01:25:06;0.10;;;0.10;;
18239;SDS011;9244;50.828;4.718;2023-12-20T01:27:34;0.10;;;0.10;;
18239;SDS011;9244;50.828;4.718;2023-12-20T01:30:02;0.10;;;0.10;;
18239;SDS011;9244;50.828;4.718;2023-12-20T01:32:28;0.10;;;0.10;;
18239;SDS011;9244;50.828;4.718;2023-12-20T01:34:56;1.03;;;1.00;;
18239;SDS011;9244;50.828;4.718;2023-12-20T01:37:21;0.50;;;0.50;;
18239;SDS011;9244;50.828;4.718;2023-12-20T01:39:50;0.00;;;0.00;;
18239;SDS011;9244;50.828;4.718;2023-12-20T01:42:16;0.20;;;0.20;;
18239;SDS011;9244;50.828;4.718;2023-12-20T01:44:41;0.10;;;0.10;;
18239;SDS011;9244;50.828;4.718;2023-12-20T01:47:07;0.10;;;0.10;;
18239;SDS011;9244;50.828;4.718;2023-12-20T01:49:38;0.00;;;0.00;;
18239;SDS011;9244;50.828;4.718;2023-12-20T01:52:04;0.10;;;0.10;;
18239;SDS011;9244;50.828;4.718;2023-12-20T01:54:32;0.10;;;0.10;;
18239;SDS011;9244;50.828;4.718;2023-12-20T01:57:02;0.10;;;0.10;;
18239;SDS011;9244;50.828;4.718;2023-12-20T01:59:30;0.00;;;0.00;;
18239;SDS011;9244;50.828;4.718;2023-12-20T02:01:56;0.10;;;0.10;;
18239;SDS011;9244;50.828;4.718;2023-12-20T02:04:24;0.00;;;0.00;;
18239;SDS011;9244;50.828;4.718;2023-12-20T02:06:55;0.00;;;0.00;;
18239;SDS011;9244;50.828;4.718;2023-12-20T02:09:22;0.20;;;0.20;;
18239;SDS011;9244;50.828;4.718;2023-12-20T02:11:48;0.00;;;0.00;;
18239;SDS011;9244;50.828;4.718;2023-12-20T02:14:18;0.83;;;0.83;;
18239;SDS011;9244;50.828;4.718;2023-12-20T02:16:46;0.43;;;0.43;;
18239;SDS011;9244;50.828;4.718;2023-12-20T02:19:14;0.30;;;0.30;;
18239;SDS011;9244;50.828;4.718;2023-12-20T02:21:42;0.83;;;0.83;;
18239;SDS011;9244;50.828;4.718;2023-12-20T02:24:08;0.00;;;0.00;;
18239;SDS011;9244;50.828;4.718;2023-12-20T02:26:36;0.00;;;0.00;;
18239;SDS011;9244;50.828;4.718;2023-12-20T02:29:01;0.00;;;0.00;;
18239;SDS011;9244;50.828;4.718;2023-12-20T02:31:30;0.10;;;0.10;;
18239;SDS011;9244;50.828;4.718;2023-12-20T02:33:55;0.10;;;0.10;;
18239;SDS011;9244;50.828;4.718;2023-12-20T02:36:21;0.10;;;0.10;;
18239;SDS011;9244;50.828;4.718;2023-12-20T02:38:46;0.10;;;0.10;;
18239;SDS011;9244;50.828;4.718;2023-12-20T02:41:15;0.03;;;0.03;;
18239;SDS011;9244;50.828;4.718;2023-12-20T02:43:43;0.10;;;0.10;;
18239;SDS011;9244;50.828;4.718;2023-12-20T02:46:11;0.20;;;0.20;;
18239;SDS011;9244;50.828;4.718;2023-12-20T02:48:38;0.10;;;0.10;;
18239;SDS011;9244;50.828;4.718;2023-12-20T02:51:04;0.10;;;0.10;;
18239;SDS011;9244;50.828;4.718;2023-12-20T02:53:32;0.60;;;0.60;;
18239;SDS011;9244;50.828;4.718;2023-12-20T02:56:00;0.10;;;0.10;;
18239;SDS011;9244;50.828;4.718;2023-12-20T02:58:28;0.10;;;0.10;;
18239;SDS011;9244;50.828;4.718;2023-12-20T03:00:54;0.10;;;0.10;;
18239;SDS011;9244;50.828;4.718;2023-12-20T03:03:19;0.10;;;0.10;;
18239;SDS011;9244;50.828;4.718;2023-12-20T03:05:45;0.00;;;0.00;;
18239;SDS011;9244;50.828;4.718;2023-12-20T03:08:11;0.10;;;0.10;;
18239;SDS011;9244;50.828;4.718;2023-12-20T03:10:39;1.03;;;1.03;;
18239;SDS011;9244;50.828;4.718;2023-12-20T03:13:05;0.37;;;0.37;;
18239;SDS011;9244;50.828;4.718;2023-12-20T03:15:31;1.10;;;1.10;;
18239;SDS011;9244;50.828;4.718;2023-12-20T03:17:58;0.10;;;0.10;;
18239;SDS011;9244;50.828;4.718;2023-12-20T03:20:24;0.10;;;0.10;;
18239;SDS011;9244;50.828;4.718;2023-12-20T03:22:51;0.10;;;0.10;;
18239;SDS011;9244;50.828;4.718;2023-12-20T03:25:17;0.40;;;0.40;;
18239;SDS011;9244;50.828;4.718;2023-12-20T03:27:47;0.10;;;0.10;;
18239;SDS011;9244;50.828;4.718;2023-12-20T03:30:13;0.00;;;0.00;;
18239;SDS011;9244;50.828;4.718;2023-12-20T03:32:39;0.13;;;0.13;;
18239;SDS011;9244;50.828;4.718;2023-12-20T03:35:07;0.00;;;0.00;;
18239;SDS011;9244;50.828;4.718;2023-12-20T03:37:37;0.17;;;0.17;;
18239;SDS011;9244;50.828;4.718;2023-12-20T03:40:05;0.00;;;0.00;;
18239;SDS011;9244;50.828;4.718;2023-12-20T03:42:34;0.67;;;0.67;;
18239;SDS011;9244;50.828;4.718;2023-12-20T03:44:59;0.10;;;0.10;;
18239;SDS011;9244;50.828;4.718;2023-12-20T03:47:27;0.00;;;0.00;;
18239;SDS011;9244;50.828;4.718;2023-12-20T03:49:55;1.07;;;0.83;;
18239;SDS011;9244;50.828;4.718;2023-12-20T03:52:23;0.63;;;0.63;;
18239;SDS011;9244;50.828;4.718;2023-12-20T03:54:49;0.10;;;0.10;;
18239;SDS011;9244;50.828;4.718;2023-12-20T03:57:14;0.40;;;0.40;;
18239;SDS011;9244;50.828;4.718;2023-12-20T03:59:42;0.10;;;0.10;;
18239;SDS011;9244;50.828;4.718;2023-12-20T04:02:10;0.10;;;0.10;;
18239;SDS011;9244;50.828;4.718;2023-12-20T04:04:35;1.33;;;1.23;;
18239;SDS011;9244;50.828;4.718;2023-12-20T04:07:01;0.10;;;0.10;;
18239;SDS011;9244;50.828;4.718;2023-12-20T04:09:27;0.10;;;0.10;;
18239;SDS011;9244;50.828;4.718;2023-12-20T04:11:52;0.37;;;0.30;;
18239;SDS011;9244;50.828;4.718;2023-12-20T04:14:18;0.20;;;0.20;;
18239;SDS011;9244;50.828;4.718;2023-12-20T04:16:43;0.10;;;0.10;;
18239;SDS011;9244;50.828;4.718;2023-12-20T04:19:09;1.13;;;0.87;;
18239;SDS011;9244;50.828;4.718;2023-12-20T04:21:39;1.80;;;1.60;;
18239;SDS011;9244;50.828;4.718;2023-12-20T04:24:05;1.20;;;1.03;;
18239;SDS011;9244;50.828;4.718;2023-12-20T04:26:31;0.23;;;0.23;;
18239;SDS011;9244;50.828;4.718;2023-12-20T04:28:59;0.00;;;0.00;;
18239;SDS011;9244;50.828;4.718;2023-12-20T04:31:24;0.10;;;0.10;;
18239;SDS011;9244;50.828;4.718;2023-12-20T04:33:50;0.10;;;0.10;;
18239;SDS011;9244;50.828;4.718;2023-12-20T04:36:18;0.70;;;0.70;;
18239;SDS011;9244;50.828;4.718;2023-12-20T04:38:46;0.27;;;0.27;;
18239;SDS011;9244;50.828;4.718;2023-12-20T04:41:11;0.20;;;0.20;;
18239;SDS011;9244;50.828;4.718;2023-12-20T04:43:43;0.97;;;0.97;;
18239;SDS011;9244;50.828;4.718;2023-12-20T04:46:11;0.10;;;0.10;;
18239;SDS011;9244;50.828;4.718;2023-12-20T04:48:42;1.47;;;1.37;;
18239;SDS011;9244;50.828;4.718;2023-12-20T04:51:07;0.10;;;0.10;;
18239;SDS011;9244;50.828;4.718;2023-12-20T04:53:35;0.07;;;0.07;;
18239;SDS011;9244;50.828;4.718;2023-12-20T04:56:03;0.10;;;0.10;;
18239;SDS011;9244;50.828;4.718;2023-12-20T04:58:29;0.10;;;0.10;;
18239;SDS011;9244;50.828;4.718;2023-12-20T05:00:55;2.63;;;1.47;;
18239;SDS011;9244;50.828;4.718;2023-12-20T05:03:23;0.87;;;0.87;;
18239;SDS011;9244;50.828;4.718;2023-12-20T05:05:51;0.30;;;0.30;;
18239;SDS011;9244;50.828;4.718;2023-12-20T05:08:19;0.10;;;0.10;;
18239;SDS011;9244;50.828;4.718;2023-12-20T05:10:50;0.43;;;0.43;;
18239;SDS011;9244;50.828;4.718;2023-12-20T05:13:16;0.30;;;0.30;;
18239;SDS011;9244;50.828;4.718;2023-12-20T05:15:47;1.50;;;1.20;;
18239;SDS011;9244;50.828;4.718;2023-12-20T05:18:14;0.10;;;0.10;;
18239;SDS011;9244;50.828;4.718;2023-12-20T05:20:42;1.87;;;1.77;;
18239;SDS011;9244;50.828;4.718;2023-12-20T05:23:13;0.63;;;0.63;;
18239;SDS011;9244;50.828;4.718;2023-12-20T05:25:39;0.10;;;0.10;;
18239;SDS011;9244;50.828;4.718;2023-12-20T05:28:07;0.10;;;0.10;;
18239;SDS011;9244;50.828;4.718;2023-12-20T05:30:32;0.10;;;0.10;;
18239;SDS011;9244;50.828;4.718;2023-12-20T05:32:58;0.10;;;0.10;;
18239;SDS011;9244;50.828;4.718;2023-12-20T05:35:24;0.10;;;0.10;;
18239;SDS011;9244;50.828;4.718;2023-12-20T05:37:52;2.63;;;1.30;;
18239;SDS011;9244;50.828;4.718;2023-12-20T05:40:17;0.70;;;0.70;;
18239;SDS011;9244;50.828;4.718;2023-12-20T05:42:43;0.10;;;0.10;;
18239;SDS011;9244;50.828;4.718;2023-12-20T05:45:09;1.90;;;0.77;;
18239;SDS011;9244;50.828;4.718;2023-12-20T05:47:37;0.10;;;0.10;;
18239;SDS011;9244;50.828;4.718;2023-12-20T05:50:03;0.43;;;0.43;;
18239;SDS011;9244;50.828;4.718;2023-12-20T05:52:31;0.03;;;0.03;;
18239;SDS011;9244;50.828;4.718;2023-12-20T05:54:57;0.13;;;0.13;;
18239;SDS011;9244;50.828;4.718;2023-12-20T05:57:28;0.87;;;0.87;;
18239;SDS011;9244;50.828;4.718;2023-12-20T05:59:56;0.00;;;0.00;;
18239;SDS011;9244;50.828;4.718;2023-12-20T06:02:21;0.60;;;0.60;;
18239;SDS011;9244;50.828;4.718;2023-12-20T06:04:49;0.03;;;0.03;;
18239;SDS011;9244;50.828;4.718;2023-12-20T06:07:17;0.10;;;0.10;;
18239;SDS011;9244;50.828;4.718;2023-12-20T06:09:48;0.10;;;0.10;;
18239;SDS011;9244;50.828;4.718;2023-12-20T06:12:16;0.00;;;0.00;;
18239;SDS011;9244;50.828;4.718;2023-12-20T06:14:44;0.10;;;0.10;;
18239;SDS011;9244;50.828;4.718;2023-12-20T06:17:13;0.63;;;0.63;;
18239;SDS011;9244;50.828;4.718;2023-12-20T06:19:41;0.57;;;0.57;;
18239;SDS011;9244;50.828;4.718;2023-12-20T06:22:10;0.10;;;0.10;;
18239;SDS011;9244;50.828;4.718;2023-12-20T06:24:36;0.20;;;0.20;;
18239;SDS011;9244;50.828;4.718;2023-12-20T06:27:01;0.10;;;0.10;;
18239;SDS011;9244;50.828;4.718;2023-12-20T06:29:27;0.10;;;0.10;;
18239;SDS011;9244;50.828;4.718;2023-12-20T06:31:53;0.20;;;0.20;;
18239;SDS011;9244;50.828;4.718;2023-12-20T06:34:19;0.43;;;0.43;;
18239;SDS011;9244;50.828;4.718;2023-12-20T06:36:47;0.30;;;0.30;;
18239;SDS011;9244;50.828;4.718;2023-12-20T06:39:15;0.00;;;0.00;;
18239;SDS011;9244;50.828;4.718;2023-12-20T06:41:40;0.10;;;0.10;;
18239;SDS011;9244;50.828;4.718;2023-12-20T06:44:10;1.20;;;1.20;;
18239;SDS011;9244;50.828;4.718;2023-12-20T06:46:38;0.00;;;0.00;;
18239;SDS011;9244;50.828;4.718;2023-12-20T06:49:04;0.20;;;0.20;;
18239;SDS011;9244;50.828;4.718;2023-12-20T06:51:29;0.10;;;0.10;;
18239;SDS011;9244;50.828;4.718;2023-12-20T06:53:56;0.20;;;0.20;;
18239;SDS011;9244;50.828;4.718;2023-12-20T06:56:21;0.10;;;0.10;;
18239;SDS011;9244;50.828;4.718;2023-12-20T06:58:47;0.47;;;0.47;;
18239;SDS011;9244;50.828;4.718;2023-12-20T07:01:13;0.10;;;0.10;;
18239;SDS011;9244;50.828;4.718;2023-12-20T07:03:40;11.23;;;3.00;;
18239;SDS011;9244;50.828;4.718;2023-12-20T07:06:10;0.10;;;0.10;;
18239;SDS011;9244;50.828;4.718;2023-12-20T07:08:36;0.10;;;0.10;;
18239;SDS011;9244;50.828;4.718;2023-12-20T07:11:04;0.10;;;0.10;;
18239;SDS011;9244;50.828;4.718;2023-12-20T07:13:31;5.60;;;1.63;;
18239;SDS011;9244;50.828;4.718;2023-12-20T07:15:57;0.10;;;0.10;;
18239;SDS011;9244;50.828;4.718;2023-12-20T07:18:25;0.00;;;0.00;;
18239;SDS011;9244;50.828;4.718;2023-12-20T07:20:55;0.57;;;0.57;;
18239;SDS011;9244;50.828;4.718;2023-12-20T07:23:21;0.10;;;0.10;;
18239;SDS011;9244;50.828;4.718;2023-12-20T07:25:50;0.00;;;0.00;;
18239;SDS011;9244;50.828;4.718;2023-12-20T07:28:16;0.63;;;0.63;;
18239;SDS011;9244;50.828;4.718;2023-12-20T07:30:42;0.10;;;0.10;;
18239;SDS011;9244;50.828;4.718;2023-12-20T07:33:07;0.30;;;0.30;;
18239;SDS011;9244;50.828;4.718;2023-12-20T07:35:37;0.10;;;0.10;;
18239;SDS011;9244;50.828;4.718;2023-12-20T07:38:03;0.10;;;0.10;;
18239;SDS011;9244;50.828;4.718;2023-12-20T07:40:31;0.10;;;0.10;;
18239;SDS011;9244;50.828;4.718;2023-12-20T07:42:59;0.10;;;0.10;;
18239;SDS011;9244;50.828;4.718;2023-12-20T07:45:25;0.10;;;0.10;;
18239;SDS011;9244;50.828;4.718;2023-12-20T07:47:50;0.10;;;0.10;;
18239;SDS011;9244;50.828;4.718;2023-12-20T07:50:16;0.23;;;0.23;;
18239;SDS011;9244;50.828;4.718;2023-12-20T07:52:44;0.10;;;0.10;;
18239;SDS011;9244;50.828;4.718;2023-12-20T07:55:14;0.50;;;0.50;;
18239;SDS011;9244;50.828;4.718;2023-12-20T07:57:40;0.10;;;0.10;;
18239;SDS011;9244;50.828;4.718;2023-12-20T08:00:06;0.00;;;0.00;;
18239;SDS011;9244;50.828;4.718;2023-12-20T08:02:32;0.10;;;0.10;;
18239;SDS011;9244;50.828;4.718;2023-12-20T08:04:57;0.10;;;0.10;;
18239;SDS011;9244;50.828;4.718;2023-12-20T08:07:27;0.10;;;0.10;;
18239;SDS011;9244;50.828;4.718;2023-12-20T08:09:55;0.07;;;0.07;;
18239;SDS011;9244;50.828;4.718;2023-12-20T08:12:21;0.10;;;0.10;;
18239;SDS011;9244;50.828;4.718;2023-12-20T08:14:47;0.20;;;0.20;;
18239;SDS011;9244;50.828;4.718;2023-12-20T08:17:15;0.10;;;0.10;;
18239;SDS011;9244;50.828;4.718;2023-12-20T08:19:41;0.10;;;0.10;;
18239;SDS011;9244;50.828;4.718;2023-12-20T08:22:07;0.37;;;0.37;;
18239;SDS011;9244;50.828;4.718;2023-12-20T08:24:34;0.10;;;0.10;;
18239;SDS011;9244;50.828;4.718;2023-12-20T08:27:05;1.70;;;1.03;;
18239;SDS011;9244;50.828;4.718;2023-12-20T08:29:34;0.10;;;0.10;;
18239;SDS011;9244;50.828;4.718;2023-12-20T08:32:02;0.10;;;0.10;;
18239;SDS011;9244;50.828;4.718;2023-12-20T08:34:32;0.10;;;0.10;;
18239;SDS011;9244;50.828;4.718;2023-12-20T08:36:57;0.10;;;0.10;;
18239;SDS011;9244;50.828;4.718;2023-12-20T08:39:25;0.10;;;0.10;;
18239;SDS011;9244;50.828;4.718;2023-12-20T08:41:54;0.20;;;0.20;;
18239;SDS011;9244;50.828;4.718;2023-12-20T08:44:20;0.40;;;0.40;;
18239;SDS011;9244;50.828;4.718;2023-12-20T08:46:49;0.20;;;0.20;;
18239;SDS011;9244;50.828;4.718;2023-12-20T08:49:17;0.10;;;0.10;;
18239;SDS011;9244;50.828;4.718;2023-12-20T08:51:45;0.30;;;0.30;;
18239;SDS011;9244;50.828;4.718;2023-12-20T08:54:13;0.10;;;0.10;;
18239;SDS011;9244;50.828;4.718;2023-12-20T08:56:39;0.10;;;0.10;;
18239;SDS011;9244;50.828;4.718;2023-12-20T08:59:04;0.00;;;0.00;;
18239;SDS011;9244;50.828;4.718;2023-12-20T09:01:30;0.80;;;0.80;;
18239;SDS011;9244;50.828;4.718;2023-12-20T09:03:55;1.77;;;1.70;;
18239;SDS011;9244;50.828;4.718;2023-12-20T09:06:24;0.10;;;0.10;;
18239;SDS011;9244;50.828;4.718;2023-12-20T09:08:50;0.23;;;0.23;;
18239;SDS011;9244;50.828;4.718;2023-12-20T09:11:15;1.70;;;1.47;;
18239;SDS011;9244;50.828;4.718;2023-12-20T09:13:42;0.10;;;0.10;;
18239;SDS011;9244;50.828;4.718;2023-12-20T09:16:09;0.00;;;0.00;;
18239;SDS011;9244;50.828;4.718;2023-12-20T09:18:38;0.10;;;0.10;;
18239;SDS011;9244;50.828;4.718;2023-12-20T09:21:06;0.00;;;0.00;;
18239;SDS011;9244;50.828;4.718;2023-12-20T09:23:31;0.77;;;0.77;;
18239;SDS011;9244;50.828;4.718;2023-12-20T09:25:57;0.10;;;0.10;;
18239;SDS011;9244;50.828;4.718;2023-12-20T09:28:23;0.20;;;0.20;;
18239;SDS011;9244;50.828;4.718;2023-12-20T09:30:50;0.50;;;0.50;;
18239;SDS011;9244;50.828;4.718;2023-12-20T09:33:16;0.00;;;0.00;;
18239;SDS011;9244;50.828;4.718;2023-12-20T09:35:42;0.10;;;0.10;;
18239;SDS011;9244;50.828;4.718;2023-12-20T09:38:07;0.40;;;0.40;;
18239;SDS011;9244;50.828;4.718;2023-12-20T09:40:36;11.30;;;2.03;;
18239;SDS011;9244;50.828;4.718;2023-12-20T09:43:10;0.10;;;0.10;;
18239;SDS011;9244;50.828;4.718;2023-12-20T09:45:38;0.57;;;0.57;;
18239;SDS011;9244;50.828;4.718;2023-12-20T09:48:07;1.20;;;1.20;;
18239;SDS011;9244;50.828;4.718;2023-12-20T09:50:35;0.33;;;0.33;;
18239;SDS011;9244;50.828;4.718;2023-12-20T09:53:02;0.13;;;0.13;;
18239;SDS011;9244;50.828;4.718;2023-12-20T09:55:30;0.17;;;0.17;;
18239;SDS011;9244;50.828;4.718;2023-12-20T09:57:59;0.10;;;0.10;;
18239;SDS011;9244;50.828;4.718;2023-12-20T10:00:25;0.43;;;0.43;;
18239;SDS011;9244;50.828;4.718;2023-12-20T10:02:54;0.00;;;0.00;;
18239;SDS011;9244;50.828;4.718;2023-12-20T10:05:26;0.10;;;0.10;;
18239;SDS011;9244;50.828;4.718;2023-12-20T10:07:55;0.00;;;0.00;;
18239;SDS011;9244;50.828;4.718;2023-12-20T10:10:24;0.10;;;0.10;;
18239;SDS011;9244;50.828;4.718;2023-12-20T10:13:03;0.10;;;0.10;;
18239;SDS011;9244;50.828;4.718;2023-12-20T10:15:32;0.00;;;0.00;;
18239;SDS011;9244;50.828;4.718;2023-12-20T10:17:59;0.10;;;0.10;;
18239;SDS011;9244;50.828;4.718;2023-12-20T10:20:26;0.30;;;0.30;;
18239;SDS011;9244;50.828;4.718;2023-12-20T10:22:55;0.10;;;0.10;;
18239;SDS011;9244;50.828;4.718;2023-12-20T10:25:21;0.40;;;0.40;;
18239;SDS011;9244;50.828;4.718;2023-12-20T10:27:47;0.10;;;0.10;;
18239;SDS011;9244;50.828;4.718;2023-12-20T10:30:19;0.00;;;0.00;;
18239;SDS011;9244;50.828;4.718;2023-12-20T10:32:45;0.00;;;0.00;;
18239;SDS011;9244;50.828;4.718;2023-12-20T10:35:12;9.77;;;3.50;;
18239;SDS011;9244;50.828;4.718;2023-12-20T10:37:38;6.20;;;2.40;;
18239;SDS011;9244;50.828;4.718;2023-12-20T10:40:04;11.37;;;3.73;;
18239;SDS011;9244;50.828;4.718;2023-12-20T10:42:31;11.00;;;2.20;;
18239;SDS011;9244;50.828;4.718;2023-12-20T10:45:01;10.93;;;2.13;;
18239;SDS011;9244;50.828;4.718;2023-12-20T10:47:26;8.77;;;2.20;;
18239;SDS011;9244;50.828;4.718;2023-12-20T10:49:54;7.67;;;1.70;;
18239;SDS011;9244;50.828;4.718;2023-12-20T10:52:25;7.97;;;2.70;;
18239;SDS011;9244;50.828;4.718;2023-12-20T10:54:55;10.80;;;3.57;;
18239;SDS011;9244;50.828;4.718;2023-12-20T10:57:21;7.10;;;1.90;;
18239;SDS011;9244;50.828;4.718;2023-12-20T10:59:55;11.67;;;3.13;;
18239;SDS011;9244;50.828;4.718;2023-12-20T11:02:24;10.23;;;3.50;;
18239;SDS011;9244;50.828;4.718;2023-12-20T11:04:52;14.47;;;2.87;;
18239;SDS011;9244;50.828;4.718;2023-12-20T11:07:34;8.67;;;2.90;;
18239;SDS011;9244;50.828;4.718;2023-12-20T11:10:10;10.40;;;3.47;;
18239;SDS011;9244;50.828;4.718;2023-12-20T11:12:56;16.40;;;3.73;;
18239;SDS011;9244;50.828;4.718;2023-12-20T11:15:34;10.30;;;4.17;;
18239;SDS011;9244;50.828;4.718;2023-12-20T11:18:03;8.70;;;2.97;;
18239;SDS011;9244;50.828;4.718;2023-12-20T11:20:37;10.00;;;2.67;;
18239;SDS011;9244;50.828;4.718;2023-12-20T11:23:05;12.30;;;2.63;;
18239;SDS011;9244;50.828;4.718;2023-12-20T11:28:26;7.07;;;2.60;;
18239;SDS011;9244;50.828;4.718;2023-12-20T11:30:55;9.83;;;2.80;;
18239;SDS011;9244;50.828;4.718;2023-12-20T11:33:25;5.90;;;2.23;;
18239;SDS011;9244;50.828;4.718;2023-12-20T11:35:57;8.87;;;2.70;;
18239;SDS011;9244;50.828;4.718;2023-12-20T11:38:25;8.13;;;3.77;;
18239;SDS011;9244;50.828;4.718;2023-12-20T11:40:51;8.87;;;2.67;;
18239;SDS011;9244;50.828;4.718;2023-12-20T11:43:35;10.33;;;2.60;;
18239;SDS011;9244;50.828;4.718;2023-12-20T11:46:05;12.23;;;2.83;;
18239;SDS011;9244;50.828;4.718;2023-12-20T11:48:32;8.57;;;2.40;;
18239;SDS011;9244;50.828;4.718;2023-12-20T11:50:59;10.03;;;2.73;;
18239;SDS011;9244;50.828;4.718;2023-12-20T11:53:28;12.43;;;3.40;;
18239;SDS011;9244;50.828;4.718;2023-12-20T11:55:55;13.17;;;2.53;;
18239;SDS011;9244;50.828;4.718;2023-12-20T11:58:21;6.07;;;1.77;;
18239;SDS011;9244;50.828;4.718;2023-12-20T12:00:48;10.80;;;2.40;;
18239;SDS011;9244;50.828;4.718;2023-12-20T12:03:15;9.97;;;2.60;;
18239;SDS011;9244;50.828;4.718;2023-12-20T12:05:43;13.00;;;2.47;;
18239;SDS011;9244;50.828;4.718;2023-12-20T12:08:16;14.73;;;2.73;;
18239;SDS011;9244;50.828;4.718;2023-12-20T12:10:43;12.37;;;2.80;;
18239;SDS011;9244;50.828;4.718;2023-12-20T12:13:11;8.17;;;1.90;;
18239;SDS011;9244;50.828;4.718;2023-12-20T12:15:41;10.77;;;2.80;;
18239;SDS011;9244;50.828;4.718;2023-12-20T12:18:09;10.30;;;2.60;;
18239;SDS011;9244;50.828;4.718;2023-12-20T12:20:35;9.70;;;3.80;;
18239;SDS011;9244;50.828;4.718;2023-12-20T12:23:02;16.37;;;3.37;;
18239;SDS011;9244;50.828;4.718;2023-12-20T12:25:29;10.50;;;2.53;;
18239;SDS011;9244;50.828;4.718;2023-12-20T12:28:00;10.70;;;2.87;;
18239;SDS011;9244;50.828;4.718;2023-12-20T12:30:29;11.20;;;3.33;;
18239;SDS011;9244;50.828;4.718;2023-12-20T12:32:55;15.00;;;2.83;;
18239;SDS011;9244;50.828;4.718;2023-12-20T12:35:21;9.63;;;2.80;;
18239;SDS011;9244;50.828;4.718;2023-12-20T12:37:50;14.13;;;3.50;;
18239;SDS011;9244;50.828;4.718;2023-12-20T12:40:17;18.57;;;3.27;;
18239;SDS011;9244;50.828;4.718;2023-12-20T12:42:43;6.20;;;2.13;;
18239;SDS011;9244;50.828;4.718;2023-12-20T12:45:10;11.30;;;3.13;;
18239;SDS011;9244;50.828;4.718;2023-12-20T12:47:38;7.77;;;4.07;;
18239;SDS011;9244;50.828;4.718;2023-12-20T12:50:04;7.87;;;2.23;;
18239;SDS011;9244;50.828;4.718;2023-12-20T12:52:32;11.63;;;3.30;;
18239;SDS011;9244;50.828;4.718;2023-12-20T12:54:58;8.50;;;2.70;;
18239;SDS011;9244;50.828;4.718;2023-12-20T12:57:26;11.90;;;3.20;;
18239;SDS011;9244;50.828;4.718;2023-12-20T12:59:54;8.80;;;2.93;;
18239;SDS011;9244;50.828;4.718;2023-12-20T13:02:23;9.93;;;2.73;;
18239;SDS011;9244;50.828;4.718;2023-12-20T13:04:49;11.77;;;3.03;;
18239;SDS011;9244;50.828;4.718;2023-12-20T13:07:17;20.97;;;2.73;;
18239;SDS011;9244;50.828;4.718;2023-12-20T13:09:44;15.03;;;3.83;;
18239;SDS011;9244;50.828;4.718;2023-12-20T13:12:10;13.03;;;3.50;;
18239;SDS011;9244;50.828;4.718;2023-12-20T13:14:36;8.77;;;2.43;;
18239;SDS011;9244;50.828;4.718;2023-12-20T13:17:05;11.50;;;3.10;;
18239;SDS011;9244;50.828;4.718;2023-12-20T13:19:31;15.10;;;3.57;;
18239;SDS011;9244;50.828;4.718;2023-12-20T13:21:59;14.57;;;3.43;;
18239;SDS011;9244;50.828;4.718;2023-12-20T13:24:25;13.97;;;3.73;;
18239;SDS011;9244;50.828;4.718;2023-12-20T13:26:53;11.23;;;3.57;;
18239;SDS011;9244;50.828;4.718;2023-12-20T13:29:19;8.83;;;2.73;;
18239;SDS011;9244;50.828;4.718;2023-12-20T13:31:44;9.73;;;3.73;;
18239;SDS011;9244;50.828;4.718;2023-12-20T13:34:12;11.00;;;2.87;;
18239;SDS011;9244;50.828;4.718;2023-12-20T13:36:38;14.67;;;3.37;;
18239;SDS011;9244;50.828;4.718;2023-12-20T13:39:04;10.90;;;2.97;;
18239;SDS011;9244;50.828;4.718;2023-12-20T13:41:32;12.30;;;2.93;;
18239;SDS011;9244;50.828;4.718;2023-12-20T13:43:57;9.83;;;2.60;;
18239;SDS011;9244;50.828;4.718;2023-12-20T13:46:23;9.63;;;3.50;;
18239;SDS011;9244;50.828;4.718;2023-12-20T13:48:52;11.37;;;3.23;;
18239;SDS011;9244;50.828;4.718;2023-12-20T13:51:18;11.50;;;3.73;;
18239;SDS011;9244;50.828;4.718;2023-12-20T13:53:48;13.43;;;3.00;;
18239;SDS011;9244;50.828;4.718;2023-12-20T13:56:14;10.33;;;3.13;;
18239;SDS011;9244;50.828;4.718;2023-12-20T13:58:40;10.37;;;2.57;;
18239;SDS011;9244;50.828;4.718;2023-12-20T14:01:11;12.00;;;3.27;;
18239;SDS011;9244;50.828;4.718;2023-12-20T14:03:41;9.40;;;2.33;;
18239;SDS011;9244;50.828;4.718;2023-12-20T14:06:07;14.87;;;2.90;;
18239;SDS011;9244;50.828;4.718;2023-12-20T14:08:33;11.83;;;3.70;;
18239;SDS011;9244;50.828;4.718;2023-12-20T14:10:59;11.10;;;3.83;;
18239;SDS011;9244;50.828;4.718;2023-12-20T14:13:26;12.50;;;2.67;;
18239;SDS011;9244;50.828;4.718;2023-12-20T14:15:52;9.10;;;2.77;;
18239;SDS011;9244;50.828;4.718;2023-12-20T14:18:19;9.60;;;3.00;;
18239;SDS011;9244;50.828;4.718;2023-12-20T14:20:49;8.73;;;2.80;;
18239;SDS011;9244;50.828;4.718;2023-12-20T14:23:18;9.33;;;2.97;;
18239;SDS011;9244;50.828;4.718;2023-12-20T14:25:43;12.13;;;2.70;;
18239;SDS011;9244;50.828;4.718;2023-12-20T14:28:09;11.17;;;3.03;;
18239;SDS011;9244;50.828;4.718;2023-12-20T14:30:37;6.57;;;2.70;;
18239;SDS011;9244;50.828;4.718;2023-12-20T14:33:05;14.30;;;3.57;;
18239;SDS011;9244;50.828;4.718;2023-12-20T14:35:31;11.17;;;3.47;;
18239;SDS011;9244;50.828;4.718;2023-12-20T14:37:59;7.00;;;2.53;;
18239;SDS011;9244;50.828;4.718;2023-12-20T14:40:28;14.53;;;3.73;;
18239;SDS011;9244;50.828;4.718;2023-12-20T14:42:54;9.97;;;2.60;;
18239;SDS011;9244;50.828;4.718;2023-12-20T14:45:19;11.43;;;2.23;;
18239;SDS011;9244;50.828;4.718;2023-12-20T14:47:46;11.83;;;2.60;;
18239;SDS011;9244;50.828;4.718;2023-12-20T14:50:12;11.70;;;3.37;;
18239;SDS011;9244;50.828;4.718;2023-12-20T14:52:43;7.07;;;2.27;;
18239;SDS011;9244;50.828;4.718;2023-12-20T14:55:11;11.60;;;2.43;;
18239;SDS011;9244;50.828;4.718;2023-12-20T14:57:37;11.20;;;2.20;;
18239;SDS011;9244;50.828;4.718;2023-12-20T15:00:04;12.37;;;3.07;;
18239;SDS011;9244;50.828;4.718;2023-12-20T15:02:30;6.73;;;1.77;;